Terminal Aerodrome Forecast
Issued by NWS

Home | Current Version | Previous Version | Text Only | Print | Product List | Glossary On
Versions: 1 2 3 4 5 6 7 8 9 10 11 12 13 14 15 16 17 18 19 20 21 22 23 24 25 26 27 28 29 30
000
FTUS44 KHGX 290520
TAFIAH
TAF
KIAH 290520Z 2906/3012 09005KT P6SM VCSH FEW014 BKN023 BKN100
      TEMPO 2906/2910 VRB15G25KT TSRA BKN014CB
     FM291000 VRB03KT P6SM VCSH SCT015 BKN025
     FM291800 VRB06KT P6SM VCTS SCT025 BKN035CB
     FM300600 07005KT P6SM SCT050 BKN100=

USA.gov is the U.S. government's official web portal to all federal, state and local government web resources and services.